sensor_id;sensor_type;location;lat;lon;timestamp;pressure;altitude;pressure_sealevel;temperature;humidity
75701;BME280;64321;48.796;44.740;2022-11-21T00:04:40;101889.66;;;4.96;73.53
75701;BME280;64321;48.796;44.740;2022-11-21T00:09:43;101899.38;;;4.93;73.18
75701;BME280;64321;48.796;44.740;2022-11-21T00:14:46;101875.13;;;4.87;73.48
75701;BME280;64321;48.796;44.740;2022-11-21T00:19:48;101863.09;;;4.83;73.71
75701;BME280;64321;48.796;44.740;2022-11-21T00:24:50;101845.56;;;4.85;74.02
75701;BME280;64321;48.796;44.740;2022-11-21T00:29:55;101858.78;;;4.82;74.49
75701;BME280;64321;48.796;44.740;2022-11-21T00:34:57;101870.16;;;4.81;74.32
75701;BME280;64321;48.796;44.740;2022-11-21T00:40:00;101859.53;;;4.84;74.22
75701;BME280;64321;48.796;44.740;2022-11-21T00:45:04;101862.09;;;4.86;74.01
75701;BME280;64321;48.796;44.740;2022-11-21T00:50:08;101854.31;;;4.84;74.48
75701;BME280;64321;48.796;44.740;2022-11-21T00:55:11;101856.94;;;4.84;74.11
75701;BME280;64321;48.796;44.740;2022-11-21T01:00:14;101866.84;;;4.76;74.52
75701;BME280;64321;48.796;44.740;2022-11-21T01:05:16;101868.78;;;4.95;74.26
75701;BME280;64321;48.796;44.740;2022-11-21T01:10:19;101851.25;;;4.97;74.24
75701;BME280;64321;48.796;44.740;2022-11-21T01:15:21;101821.66;;;4.95;74.23
75701;BME280;64321;48.796;44.740;2022-11-21T01:20:24;101810.38;;;4.93;74.12
75701;BME280;64321;48.796;44.740;2022-11-21T01:25:27;101806.97;;;4.91;74.31
75701;BME280;64321;48.796;44.740;2022-11-21T01:30:29;101801.84;;;4.87;74.29
75701;BME280;64321;48.796;44.740;2022-11-21T01:35:32;101812.44;;;4.84;74.29
75701;BME280;64321;48.796;44.740;2022-11-21T01:40:38;101794.56;;;4.96;74.14
75701;BME280;64321;48.796;44.740;2022-11-21T01:45:53;101830.97;;;5.02;74.25
75701;BME280;64321;48.796;44.740;2022-11-21T01:51:00;101832.91;;;4.97;74.13
75701;BME280;64321;48.796;44.740;2022-11-21T01:56:04;101833.72;;;4.99;73.89
75701;BME280;64321;48.796;44.740;2022-11-21T02:01:08;101847.91;;;5.15;73.99
75701;BME280;64321;48.796;44.740;2022-11-21T02:06:12;101836.03;;;5.06;73.88
75701;BME280;64321;48.796;44.740;2022-11-21T02:11:20;101830.78;;;5.06;74.08
75701;BME280;64321;48.796;44.740;2022-11-21T02:16:25;101832.44;;;5.09;74.22
75701;BME280;64321;48.796;44.740;2022-11-21T02:22:10;101818.19;;;5.16;74.13
75701;BME280;64321;48.796;44.740;2022-11-21T02:27:08;101813.06;;;5.13;73.88
75701;BME280;64321;48.796;44.740;2022-11-21T02:32:20;101810.00;;;5.02;74.38
75701;BME280;64321;48.796;44.740;2022-11-21T02:37:23;101810.00;;;5.23;74.28
75701;BME280;64321;48.796;44.740;2022-11-21T02:42:36;101812.16;;;5.14;74.58
75701;BME280;64321;48.796;44.740;2022-11-21T02:47:41;101791.63;;;5.25;74.39
75701;BME280;64321;48.796;44.740;2022-11-21T02:52:45;101797.84;;;5.22;74.34
75701;BME280;64321;48.796;44.740;2022-11-21T02:57:48;101789.34;;;5.17;74.41
75701;BME280;64321;48.796;44.740;2022-11-21T03:02:51;101781.09;;;5.27;74.18
75701;BME280;64321;48.796;44.740;2022-11-21T03:07:54;101782.72;;;5.29;74.15
75701;BME280;64321;48.796;44.740;2022-11-21T03:12:57;101779.72;;;5.18;74.17
75701;BME280;64321;48.796;44.740;2022-11-21T03:18:03;101778.59;;;5.23;74.38
75701;BME280;64321;48.796;44.740;2022-11-21T03:23:05;101765.50;;;5.23;74.30
75701;BME280;64321;48.796;44.740;2022-11-21T03:28:08;101767.56;;;5.37;74.57
75701;BME280;64321;48.796;44.740;2022-11-21T03:33:10;101745.34;;;5.26;74.63
75701;BME280;64321;48.796;44.740;2022-11-21T03:38:13;101753.00;;;5.30;75.21
75701;BME280;64321;48.796;44.740;2022-11-21T03:43:15;101748.38;;;5.37;74.71
75701;BME280;64321;48.796;44.740;2022-11-21T03:48:18;101751.50;;;5.45;74.86
75701;BME280;64321;48.796;44.740;2022-11-21T03:53:20;101748.97;;;5.43;74.81
75701;BME280;64321;48.796;44.740;2022-11-21T03:58:23;101741.81;;;5.27;75.16
75701;BME280;64321;48.796;44.740;2022-11-21T04:03:25;101745.03;;;5.33;74.79
75701;BME280;64321;48.796;44.740;2022-11-21T04:08:28;101763.25;;;5.36;75.19
75701;BME280;64321;48.796;44.740;2022-11-21T04:13:31;101743.59;;;5.46;74.97
75701;BME280;64321;48.796;44.740;2022-11-21T04:18:34;101734.34;;;5.38;75.09
75701;BME280;64321;48.796;44.740;2022-11-21T04:23:37;101731.34;;;5.47;74.86
75701;BME280;64321;48.796;44.740;2022-11-21T04:28:39;101716.53;;;5.46;75.48
75701;BME280;64321;48.796;44.740;2022-11-21T04:33:42;101729.84;;;5.41;75.54
75701;BME280;64321;48.796;44.740;2022-11-21T04:38:44;101705.09;;;5.48;75.75
75701;BME280;64321;48.796;44.740;2022-11-21T04:43:47;101715.16;;;5.57;75.45
75701;BME280;64321;48.796;44.740;2022-11-21T04:48:50;101709.41;;;5.70;75.15
75701;BME280;64321;48.796;44.740;2022-11-21T04:53:52;101697.34;;;5.66;75.18
75701;BME280;64321;48.796;44.740;2022-11-21T04:58:55;101702.72;;;5.63;75.29
75701;BME280;64321;48.796;44.740;2022-11-21T05:03:57;101679.19;;;5.61;75.53
75701;BME280;64321;48.796;44.740;2022-11-21T05:09:00;101679.91;;;5.65;75.55
75701;BME280;64321;48.796;44.740;2022-11-21T05:14:02;101674.25;;;5.74;75.47
75701;BME280;64321;48.796;44.740;2022-11-21T05:19:05;101661.09;;;5.75;75.46
75701;BME280;64321;48.796;44.740;2022-11-21T05:24:09;101651.75;;;5.70;75.59
75701;BME280;64321;48.796;44.740;2022-11-21T05:29:11;101654.06;;;5.76;75.96
75701;BME280;64321;48.796;44.740;2022-11-21T05:34:14;101648.44;;;5.85;75.62
75701;BME280;64321;48.796;44.740;2022-11-21T05:39:16;101643.56;;;5.96;75.34
75701;BME280;64321;48.796;44.740;2022-11-21T05:44:19;101654.78;;;6.18;75.01
75701;BME280;64321;48.796;44.740;2022-11-21T05:49:22;101642.63;;;6.35;74.58
75701;BME280;64321;48.796;44.740;2022-11-21T05:54:24;101632.34;;;6.30;74.70
75701;BME280;64321;48.796;44.740;2022-11-21T05:59:27;101631.06;;;6.39;74.81
75701;BME280;64321;48.796;44.740;2022-11-21T06:04:30;101627.56;;;6.57;74.30
75701;BME280;64321;48.796;44.740;2022-11-21T06:09:32;101627.16;;;6.65;74.17
75701;BME280;64321;48.796;44.740;2022-11-21T06:14:34;101623.41;;;6.70;74.00
75701;BME280;64321;48.796;44.740;2022-11-21T06:19:37;101616.22;;;6.56;74.33
75701;BME280;64321;48.796;44.740;2022-11-21T06:24:39;101641.38;;;6.60;74.71
75701;BME280;64321;48.796;44.740;2022-11-21T06:29:42;101640.41;;;6.80;74.45
75701;BME280;64321;48.796;44.740;2022-11-21T06:34:44;101631.13;;;6.73;74.42
75701;BME280;64321;48.796;44.740;2022-11-21T06:39:47;101629.97;;;6.79;74.70
75701;BME280;64321;48.796;44.740;2022-11-21T06:44:50;101636.09;;;6.79;74.78
75701;BME280;64321;48.796;44.740;2022-11-21T06:49:52;101645.34;;;6.86;75.07
75701;BME280;64321;48.796;44.740;2022-11-21T06:54:55;101647.38;;;6.99;75.06
75701;BME280;64321;48.796;44.740;2022-11-21T06:59:57;101635.38;;;7.10;75.05
75701;BME280;64321;48.796;44.740;2022-11-21T07:05:00;101641.56;;;7.09;74.93
75701;BME280;64321;48.796;44.740;2022-11-21T07:10:04;101614.59;;;7.23;75.10
75701;BME280;64321;48.796;44.740;2022-11-21T07:15:07;101612.16;;;7.36;74.93
75701;BME280;64321;48.796;44.740;2022-11-21T07:20:10;101581.00;;;7.45;74.27
75701;BME280;64321;48.796;44.740;2022-11-21T07:25:13;101594.75;;;7.50;74.58
75701;BME280;64321;48.796;44.740;2022-11-21T07:30:15;101583.91;;;7.56;74.36
75701;BME280;64321;48.796;44.740;2022-11-21T07:35:18;101576.38;;;7.50;74.52
75701;BME280;64321;48.796;44.740;2022-11-21T07:40:21;101567.34;;;7.54;74.66
75701;BME280;64321;48.796;44.740;2022-11-21T07:45:23;101576.38;;;7.66;74.44
75701;BME280;64321;48.796;44.740;2022-11-21T07:50:26;101571.38;;;7.61;74.60
75701;BME280;64321;48.796;44.740;2022-11-21T07:55:29;101577.06;;;7.70;74.41
75701;BME280;64321;48.796;44.740;2022-11-21T08:00:40;101578.25;;;7.64;75.23
75701;BME280;64321;48.796;44.740;2022-11-21T08:05:46;101547.38;;;7.68;74.83
75701;BME280;64321;48.796;44.740;2022-11-21T08:10:48;101548.41;;;7.81;74.41
75701;BME280;64321;48.796;44.740;2022-11-21T08:15:52;101539.81;;;7.93;74.20
75701;BME280;64321;48.796;44.740;2022-11-21T08:20:55;101522.41;;;8.06;73.92
75701;BME280;64321;48.796;44.740;2022-11-21T08:25:57;101502.41;;;8.04;73.95
75701;BME280;64321;48.796;44.740;2022-11-21T08:31:04;101479.59;;;8.04;74.22
75701;BME280;64321;48.796;44.740;2022-11-21T08:36:07;101472.53;;;7.89;74.20
75701;BME280;64321;48.796;44.740;2022-11-21T08:41:11;101480.59;;;8.01;74.33
75701;BME280;64321;48.796;44.740;2022-11-21T08:46:35;101490.00;;;7.90;74.83
75701;BME280;64321;48.796;44.740;2022-11-21T08:51:41;101496.50;;;7.84;74.71
75701;BME280;64321;48.796;44.740;2022-11-21T08:56:44;101494.44;;;7.74;75.41
75701;BME280;64321;48.796;44.740;2022-11-21T09:01:46;101488.78;;;7.81;75.47
75701;BME280;64321;48.796;44.740;2022-11-21T09:06:49;101504.22;;;7.87;75.54
75701;BME280;64321;48.796;44.740;2022-11-21T09:11:52;101495.28;;;8.06;75.03
75701;BME280;64321;48.796;44.740;2022-11-21T09:16:55;101488.88;;;8.10;74.99
75701;BME280;64321;48.796;44.740;2022-11-21T09:22:16;101471.81;;;8.17;74.88
75701;BME280;64321;48.796;44.740;2022-11-21T09:27:21;101479.25;;;8.24;74.98
75701;BME280;64321;48.796;44.740;2022-11-21T09:32:24;101477.38;;;8.26;74.90
75701;BME280;64321;48.796;44.740;2022-11-21T09:37:26;101466.19;;;8.39;74.75
75701;BME280;64321;48.796;44.740;2022-11-21T09:43:05;101449.50;;;8.54;74.73
75701;BME280;64321;48.796;44.740;2022-11-21T09:48:20;101452.56;;;8.46;75.10
75701;BME280;64321;48.796;44.740;2022-11-21T09:53:39;101446.09;;;8.52;75.13
75701;BME280;64321;48.796;44.740;2022-11-21T10:04:02;101449.84;;;8.48;75.57
75701;BME280;64321;48.796;44.740;2022-11-21T10:20:09;101438.38;;;8.63;75.56
75701;BME280;64321;48.796;44.740;2022-11-21T10:25:35;101448.06;;;8.62;76.05
75701;BME280;64321;48.796;44.740;2022-11-21T10:30:43;101435.31;;;8.70;75.84
75701;BME280;64321;48.796;44.740;2022-11-21T10:35:50;101427.22;;;8.74;75.81
75701;BME280;64321;48.796;44.740;2022-11-21T10:46:04;101432.41;;;8.89;75.56
75701;BME280;64321;48.796;44.740;2022-11-21T10:56:37;101411.31;;;9.03;75.31
75701;BME280;64321;48.796;44.740;2022-11-21T11:01:54;101409.78;;;8.99;75.17
75701;BME280;64321;48.796;44.740;2022-11-21T11:06:57;101414.69;;;9.05;75.45
75701;BME280;64321;48.796;44.740;2022-11-21T11:12:27;101424.84;;;8.97;75.56
75701;BME280;64321;48.796;44.740;2022-11-21T11:17:57;101421.09;;;8.87;76.03
75701;BME280;64321;48.796;44.740;2022-11-21T11:28:33;101371.22;;;8.98;75.62
75701;BME280;64321;48.796;44.740;2022-11-21T11:33:48;101379.69;;;9.03;75.84
75701;BME280;64321;48.796;44.740;2022-11-21T11:38:57;101364.47;;;8.94;76.12
75701;BME280;64321;48.796;44.740;2022-11-21T11:44:09;101344.88;;;8.98;76.11
75701;BME280;64321;48.796;44.740;2022-11-21T11:49:45;101339.97;;;9.07;76.16
75701;BME280;64321;48.796;44.740;2022-11-21T11:55:17;101355.56;;;9.24;75.93
75701;BME280;64321;48.796;44.740;2022-11-21T12:00:51;101349.91;;;9.30;75.97
75701;BME280;64321;48.796;44.740;2022-11-21T12:06:04;101312.94;;;9.44;75.61
75701;BME280;64321;48.796;44.740;2022-11-21T12:16:32;101316.94;;;9.50;75.69
75701;BME280;64321;48.796;44.740;2022-11-21T12:21:36;101325.50;;;9.53;75.78
75701;BME280;64321;48.796;44.740;2022-11-21T12:26:51;101321.59;;;9.46;75.84
75701;BME280;64321;48.796;44.740;2022-11-21T12:37:18;101340.03;;;9.46;75.91
75701;BME280;64321;48.796;44.740;2022-11-21T12:42:59;101351.72;;;9.42;76.35
75701;BME280;64321;48.796;44.740;2022-11-21T12:48:17;101344.00;;;9.39;76.32
75701;BME280;64321;48.796;44.740;2022-11-21T12:53:55;101335.16;;;9.40;76.59
75701;BME280;64321;48.796;44.740;2022-11-21T12:59:23;101322.78;;;9.28;76.83
75701;BME280;64321;48.796;44.740;2022-11-21T13:04:33;101324.81;;;9.37;76.99
75701;BME280;64321;48.796;44.740;2022-11-21T13:09:41;101326.50;;;9.38;76.81
75701;BME280;64321;48.796;44.740;2022-11-21T13:14:57;101330.03;;;9.24;76.74
75701;BME280;64321;48.796;44.740;2022-11-21T13:20:18;101326.47;;;9.25;77.20
75701;BME280;64321;48.796;44.740;2022-11-21T13:30:45;101326.28;;;9.28;76.98
75701;BME280;64321;48.796;44.740;2022-11-21T13:40:51;101318.00;;;9.20;76.96
75701;BME280;64321;48.796;44.740;2022-11-21T13:51:54;101295.63;;;9.40;76.00
75701;BME280;64321;48.796;44.740;2022-11-21T14:02:36;101315.38;;;9.20;76.32
75701;BME280;64321;48.796;44.740;2022-11-21T14:07:46;101310.66;;;9.25;77.03
75701;BME280;64321;48.796;44.740;2022-11-21T14:12:50;101298.31;;;9.26;76.84
75701;BME280;64321;48.796;44.740;2022-11-21T14:17:56;101286.84;;;9.27;76.97
75701;BME280;64321;48.796;44.740;2022-11-21T14:23:05;101276.72;;;9.33;77.00
75701;BME280;64321;48.796;44.740;2022-11-21T14:28:25;101268.72;;;9.35;77.22
75701;BME280;64321;48.796;44.740;2022-11-21T14:38:39;101263.78;;;9.43;77.46
75701;BME280;64321;48.796;44.740;2022-11-21T14:43:42;101270.22;;;9.52;77.77
75701;BME280;64321;48.796;44.740;2022-11-21T14:48:45;101265.81;;;9.52;77.98
75701;BME280;64321;48.796;44.740;2022-11-21T14:53:49;101267.38;;;9.42;78.45
75701;BME280;64321;48.796;44.740;2022-11-21T14:58:55;101268.13;;;9.44;78.84
75701;BME280;64321;48.796;44.740;2022-11-21T15:04:01;101264.09;;;9.51;78.83
75701;BME280;64321;48.796;44.740;2022-11-21T15:09:04;101254.50;;;9.50;78.78
75701;BME280;64321;48.796;44.740;2022-11-21T15:14:34;101241.47;;;9.61;78.56
75701;BME280;64321;48.796;44.740;2022-11-21T15:19:38;101225.84;;;9.58;79.13
75701;BME280;64321;48.796;44.740;2022-11-21T15:24:43;101241.56;;;9.72;78.62
75701;BME280;64321;48.796;44.740;2022-11-21T15:29:45;101226.69;;;9.71;78.89
75701;BME280;64321;48.796;44.740;2022-11-21T15:34:48;101215.94;;;9.74;78.99
75701;BME280;64321;48.796;44.740;2022-11-21T15:39:52;101217.94;;;9.71;78.83
75701;BME280;64321;48.796;44.740;2022-11-21T15:50:23;101208.88;;;9.62;78.57
75701;BME280;64321;48.796;44.740;2022-11-21T15:55:28;101209.72;;;9.63;78.50
75701;BME280;64321;48.796;44.740;2022-11-21T16:00:32;101212.47;;;9.61;78.44
75701;BME280;64321;48.796;44.740;2022-11-21T16:05:35;101207.94;;;9.63;78.45
75701;BME280;64321;48.796;44.740;2022-11-21T16:10:37;101221.16;;;9.36;78.71
75701;BME280;64321;48.796;44.740;2022-11-21T16:15:40;101222.34;;;9.45;78.73
75701;BME280;64321;48.796;44.740;2022-11-21T16:20:43;101199.13;;;9.50;78.35
75701;BME280;64321;48.796;44.740;2022-11-21T16:25:52;101188.41;;;9.66;77.85
75701;BME280;64321;48.796;44.740;2022-11-21T16:30:58;101185.88;;;9.64;77.86
75701;BME280;64321;48.796;44.740;2022-11-21T16:36:02;101179.66;;;9.65;78.29
75701;BME280;64321;48.796;44.740;2022-11-21T16:41:04;101185.66;;;9.67;78.72
75701;BME280;64321;48.796;44.740;2022-11-21T16:46:08;101199.16;;;9.63;78.43
75701;BME280;64321;48.796;44.740;2022-11-21T16:51:16;101193.25;;;9.59;77.54
75701;BME280;64321;48.796;44.740;2022-11-21T16:56:19;101193.75;;;9.52;78.14
75701;BME280;64321;48.796;44.740;2022-11-21T17:01:23;101188.06;;;9.70;77.08
75701;BME280;64321;48.796;44.740;2022-11-21T17:06:28;101169.00;;;9.80;76.88
75701;BME280;64321;48.796;44.740;2022-11-21T17:11:31;101167.84;;;9.84;76.17
75701;BME280;64321;48.796;44.740;2022-11-21T17:16:34;101163.91;;;9.89;76.68
75701;BME280;64321;48.796;44.740;2022-11-21T17:21:38;101172.78;;;10.01;76.59
75701;BME280;64321;48.796;44.740;2022-11-21T17:26:41;101160.81;;;10.08;76.13
75701;BME280;64321;48.796;44.740;2022-11-21T17:31:43;101154.47;;;10.10;76.23
75701;BME280;64321;48.796;44.740;2022-11-21T17:36:48;101160.28;;;10.16;76.29
75701;BME280;64321;48.796;44.740;2022-11-21T17:41:52;101158.69;;;10.13;76.48
75701;BME280;64321;48.796;44.740;2022-11-21T17:46:55;101155.44;;;10.09;76.94
75701;BME280;64321;48.796;44.740;2022-11-21T17:52:00;101151.66;;;10.01;77.76
75701;BME280;64321;48.796;44.740;2022-11-21T17:57:02;101155.25;;;10.00;77.33
75701;BME280;64321;48.796;44.740;2022-11-21T18:02:05;101158.63;;;10.02;77.93
75701;BME280;64321;48.796;44.740;2022-11-21T18:07:08;101151.94;;;10.09;77.55
75701;BME280;64321;48.796;44.740;2022-11-21T18:12:11;101165.34;;;10.06;78.13
75701;BME280;64321;48.796;44.740;2022-11-21T18:17:13;101166.84;;;10.10;78.33
75701;BME280;64321;48.796;44.740;2022-11-21T18:22:16;101168.53;;;10.11;78.05
75701;BME280;64321;48.796;44.740;2022-11-21T18:27:18;101176.03;;;9.92;78.47
75701;BME280;64321;48.796;44.740;2022-11-21T18:32:21;101174.06;;;9.83;77.74
75701;BME280;64321;48.796;44.740;2022-11-21T18:37:24;101177.72;;;9.67;77.45
75701;BME280;64321;48.796;44.740;2022-11-21T18:42:26;101165.84;;;9.49;77.35
75701;BME280;64321;48.796;44.740;2022-11-21T18:47:29;101170.25;;;9.36;77.72
75701;BME280;64321;48.796;44.740;2022-11-21T18:52:31;101172.22;;;9.20;77.28
75701;BME280;64321;48.796;44.740;2022-11-21T18:57:35;101175.06;;;9.17;77.38
75701;BME280;64321;48.796;44.740;2022-11-21T19:02:38;101175.78;;;9.06;77.54
75701;BME280;64321;48.796;44.740;2022-11-21T19:07:40;101179.72;;;9.13;77.48
75701;BME280;64321;48.796;44.740;2022-11-21T19:12:43;101180.50;;;9.01;78.19
75701;BME280;64321;48.796;44.740;2022-11-21T19:17:46;101183.88;;;9.03;78.35
75701;BME280;64321;48.796;44.740;2022-11-21T19:22:48;101185.34;;;8.94;78.46
75701;BME280;64321;48.796;44.740;2022-11-21T19:27:51;101176.09;;;9.01;77.74
75701;BME280;64321;48.796;44.740;2022-11-21T19:32:53;101186.03;;;9.23;77.39
75701;BME280;64321;48.796;44.740;2022-11-21T19:37:57;101184.47;;;9.33;78.08
75701;BME280;64321;48.796;44.740;2022-11-21T19:43:01;101189.03;;;9.44;77.37
75701;BME280;64321;48.796;44.740;2022-11-21T19:48:03;101181.88;;;9.46;78.27
75701;BME280;64321;48.796;44.740;2022-11-21T19:53:06;101186.06;;;9.36;78.51
75701;BME280;64321;48.796;44.740;2022-11-21T19:58:09;101180.91;;;9.47;77.65
75701;BME280;64321;48.796;44.740;2022-11-21T20:03:13;101184.50;;;9.46;76.55
75701;BME280;64321;48.796;44.740;2022-11-21T20:08:15;101180.81;;;9.49;75.63
75701;BME280;64321;48.796;44.740;2022-11-21T20:13:19;101183.97;;;9.41;76.81
75701;BME280;64321;48.796;44.740;2022-11-21T20:18:21;101187.94;;;9.21;77.60
75701;BME280;64321;48.796;44.740;2022-11-21T20:23:24;101203.00;;;9.19;77.21
75701;BME280;64321;48.796;44.740;2022-11-21T20:28:27;101207.31;;;9.20;77.72
75701;BME280;64321;48.796;44.740;2022-11-21T20:33:33;101225.94;;;9.31;76.18
75701;BME280;64321;48.796;44.740;2022-11-21T20:38:36;101230.59;;;9.14;77.06
75701;BME280;64321;48.796;44.740;2022-11-21T20:43:39;101228.19;;;9.11;76.29
75701;BME280;64321;48.796;44.740;2022-11-21T20:49:09;101230.41;;;8.90;76.22
75701;BME280;64321;48.796;44.740;2022-11-21T20:54:12;101228.44;;;8.93;76.59
75701;BME280;64321;48.796;44.740;2022-11-21T20:59:14;101222.63;;;8.88;76.16
75701;BME280;64321;48.796;44.740;2022-11-21T21:04:17;101225.81;;;8.93;76.34
75701;BME280;64321;48.796;44.740;2022-11-21T21:09:19;101226.34;;;8.72;76.99
75701;BME280;64321;48.796;44.740;2022-11-21T21:14:22;101226.78;;;8.78;76.11
75701;BME280;64321;48.796;44.740;2022-11-21T21:19:24;101236.53;;;8.90;75.80
75701;BME280;64321;48.796;44.740;2022-11-21T21:24:27;101239.22;;;8.76;75.95
75701;BME280;64321;48.796;44.740;2022-11-21T21:29:30;101232.66;;;8.69;75.79
75701;BME280;64321;48.796;44.740;2022-11-21T21:34:33;101221.28;;;8.68;75.70
75701;BME280;64321;48.796;44.740;2022-11-21T21:39:35;101219.38;;;8.70;75.62
75701;BME280;64321;48.796;44.740;2022-11-21T21:44:38;101221.22;;;8.56;75.94
75701;BME280;64321;48.796;44.740;2022-11-21T21:49:41;101224.50;;;8.45;75.96
75701;BME280;64321;48.796;44.740;2022-11-21T21:54:43;101234.41;;;8.42;76.35
75701;BME280;64321;48.796;44.740;2022-11-21T21:59:46;101232.50;;;8.44;76.14
75701;BME280;64321;48.796;44.740;2022-11-21T22:04:48;101237.47;;;8.48;76.46
75701;BME280;64321;48.796;44.740;2022-11-21T22:09:53;101237.75;;;8.44;76.83
75701;BME280;64321;48.796;44.740;2022-11-21T22:14:56;101237.47;;;8.48;76.79
75701;BME280;64321;48.796;44.740;2022-11-21T22:19:59;101241.13;;;8.60;76.41
75701;BME280;64321;48.796;44.740;2022-11-21T22:25:01;101247.34;;;8.59;76.71
75701;BME280;64321;48.796;44.740;2022-11-21T22:30:04;101235.84;;;8.60;76.62
75701;BME280;64321;48.796;44.740;2022-11-21T22:35:07;101229.88;;;8.44;76.67
75701;BME280;64321;48.796;44.740;2022-11-21T22:40:10;101244.13;;;8.25;77.49
75701;BME280;64321;48.796;44.740;2022-11-21T22:45:13;101257.50;;;8.22;77.84
75701;BME280;64321;48.796;44.740;2022-11-21T22:50:16;101272.53;;;8.49;77.08
75701;BME280;64321;48.796;44.740;2022-11-21T22:55:18;101280.59;;;8.60;76.69
75701;BME280;64321;48.796;44.740;2022-11-21T23:00:21;101258.06;;;8.56;76.52
75701;BME280;64321;48.796;44.740;2022-11-21T23:05:24;101235.22;;;8.56;76.53
75701;BME280;64321;48.796;44.740;2022-11-21T23:10:26;101223.94;;;8.54;76.37
75701;BME280;64321;48.796;44.740;2022-11-21T23:15:29;101218.81;;;8.39;76.50
75701;BME280;64321;48.796;44.740;2022-11-21T23:20:31;101201.41;;;8.36;76.51
75701;BME280;64321;48.796;44.740;2022-11-21T23:25:34;101200.34;;;8.24;76.96
75701;BME280;64321;48.796;44.740;2022-11-21T23:30:36;101228.56;;;8.22;76.92
75701;BME280;64321;48.796;44.740;2022-11-21T23:35:41;101232.06;;;8.37;76.76
75701;BME280;64321;48.796;44.740;2022-11-21T23:40:44;101234.69;;;8.23;76.68
75701;BME280;64321;48.796;44.740;2022-11-21T23:45:51;101235.53;;;8.23;76.39
75701;BME280;64321;48.796;44.740;2022-11-21T23:50:54;101242.28;;;7.99;77.05
75701;BME280;64321;48.796;44.740;2022-11-21T23:55:57;101234.47;;;7.97;76.80
